Time;durP1;ratioP1;P1;durP2;ratioP2;P2;SDS_P1;SDS_P2;PMS_P1;PMS_P2;Temp;Humidity;BMP_temperature;BMP_pressure;BME280_temperature;BME280_humidity;BME280_pressure;Samples;Min_cycle;Max_cycle;Signal;HPM_P1;HPM_P2
2023/09/14 00:00:42;;;;;;;1999.90;999.90;;;15.70;99.90;;;;;;5014603;28;20214;-71
2023/09/14 00:03:08;;;;;;;1999.90;999.90;;;15.70;99.90;;;;;;5014465;28;20672;-71
2023/09/14 00:05:42;;;;;;;1999.90;999.90;;;15.70;99.90;;;;;;5014710;28;20410;-70
2023/09/14 00:08:08;;;;;;;1999.90;999.90;;;15.60;99.90;;;;;;5014657;28;20194;-71
2023/09/14 00:10:34;;;;;;;1999.90;999.90;;;15.50;99.90;;;;;;5014445;28;20423;-70
2023/09/14 00:13:00;;;;;;;1999.90;999.90;;;15.40;99.90;;;;;;5014164;28;20441;-70
2023/09/14 00:15:26;;;;;;;1999.90;999.90;;;15.30;99.90;;;;;;5014437;28;20164;-70
2023/09/14 00:17:52;;;;;;;1999.90;999.90;;;15.20;99.90;;;;;;5014415;28;20928;-69
2023/09/14 00:20:23;;;;;;;1999.90;999.90;;;15.20;99.90;;;;;;5014274;28;20428;-70
2023/09/14 00:22:52;;;;;;;1999.90;999.90;;;15.20;99.90;;;;;;5014092;28;20447;-70
2023/09/14 00:25:19;;;;;;;1999.90;999.90;;;15.20;99.90;;;;;;5014219;28;20403;-70
2023/09/14 00:27:45;;;;;;;1999.90;999.90;;;15.20;99.90;;;;;;5014215;28;20419;-70
2023/09/14 00:30:10;;;;;;;1999.90;999.90;;;15.30;99.90;;;;;;5014070;28;20429;-70
2023/09/14 00:32:40;;;;;;;1999.90;999.90;;;15.30;99.90;;;;;;5014045;28;20193;-70
2023/09/14 00:35:14;;;;;;;1999.90;999.90;;;15.30;99.90;;;;;;5014011;28;20406;-70
2023/09/14 00:37:41;;;;;;;1999.90;999.90;;;15.40;99.90;;;;;;5012806;28;20478;-69
2023/09/14 00:40:12;;;;;;;1999.90;999.90;;;15.40;99.90;;;;;;5013794;28;20518;-70
2023/09/14 00:42:41;;;;;;;1999.90;999.90;;;15.20;99.90;;;;;;5013821;28;20962;-69
2023/09/14 00:45:08;;;;;;;1999.90;999.90;;;15.40;99.90;;;;;;5013823;28;20412;-70
2023/09/14 00:47:35;;;;;;;1999.90;999.90;;;15.40;99.90;;;;;;5013895;28;20773;-70
2023/09/14 00:50:03;;;;;;;1999.90;999.90;;;15.40;99.90;;;;;;5013758;28;20953;-70
2023/09/14 00:52:30;;;;;;;1999.90;999.90;;;15.40;99.90;;;;;;5013662;28;20862;-70
2023/09/14 00:54:56;;;;;;;1999.90;999.90;;;;;;;;;;5013456;28;20415;-70
2023/09/14 00:57:22;;;;;;;1999.90;999.90;;;15.50;99.90;;;;;;5013696;28;20436;-70
2023/09/14 00:59:48;;;;;;;1999.90;999.90;;;15.50;99.90;;;;;;5013374;28;20942;-70
2023/09/14 01:02:14;;;;;;;1999.90;999.90;;;15.50;99.90;;;;;;5013726;28;20263;-70
2023/09/14 01:04:40;;;;;;;1999.90;999.90;;;15.50;99.90;;;;;;5013436;28;20423;-70
2023/09/14 01:07:06;;;;;;;1999.90;999.90;;;15.50;99.90;;;;;;5013293;28;20421;-70
2023/09/14 01:09:32;;;;;;;1999.90;999.90;;;15.50;99.90;;;;;;5013347;28;20432;-69
2023/09/14 01:11:58;;;;;;;1999.90;999.90;;;15.50;99.90;;;;;;5013474;28;20624;-70
2023/09/14 01:14:33;;;;;;;1999.90;999.90;;;15.50;99.90;;;;;;5013132;28;20257;-71
2023/09/14 01:17:06;;;;;;;1999.90;999.90;;;15.40;99.90;;;;;;5013409;28;20458;-69
2023/09/14 01:19:41;;;;;;;1999.90;999.90;;;15.20;99.90;;;;;;5013202;28;20409;-70
2023/09/14 01:22:20;;;;;;;1999.90;999.90;;;15.40;99.90;;;;;;5013196;28;20404;-69
2023/09/14 01:25:07;;;;;;;1999.90;999.90;;;15.40;99.90;;;;;;5013046;28;20915;-70
2023/09/14 01:27:33;;;;;;;1999.90;999.90;;;15.40;99.90;;;;;;5013220;28;20805;-70
2023/09/14 01:29:59;;;;;;;1999.90;999.90;;;15.30;99.90;;;;;;5013033;28;20425;-70
2023/09/14 01:32:27;;;;;;;1999.90;999.90;;;15.30;99.90;;;;;;5013096;28;20202;-71
2023/09/14 01:34:53;;;;;;;1999.90;999.90;;;15.20;99.90;;;;;;5013052;28;20401;-71
2023/09/14 01:37:20;;;;;;;1999.90;999.90;;;15.20;99.90;;;;;;5013001;28;20534;-70
2023/09/14 01:39:46;;;;;;;1999.90;999.90;;;15.20;99.90;;;;;;5011658;28;20494;-71
2023/09/14 01:42:12;;;;;;;1999.90;999.90;;;15.20;99.90;;;;;;5012995;28;20481;-70
2023/09/14 01:44:39;;;;;;;1999.90;999.90;;;15.20;99.90;;;;;;5012489;28;20459;-70
2023/09/14 01:47:05;;;;;;;1999.90;999.90;;;15.20;99.90;;;;;;5012894;28;20410;-70
2023/09/14 01:49:30;;;;;;;1999.90;999.90;;;15.20;99.90;;;;;;5012661;28;20499;-70
2023/09/14 01:51:56;;;;;;;1999.90;999.90;;;15.20;99.90;;;;;;5012702;28;20439;-69
2023/09/14 01:54:22;;;;;;;1999.90;999.90;;;15.10;99.90;;;;;;5012469;28;20183;-70
2023/09/14 01:56:48;;;;;;;1999.90;999.90;;;15.10;99.90;;;;;;5012653;28;20256;-69
2023/09/14 01:59:14;;;;;;;1999.90;999.90;;;15.10;99.90;;;;;;5012573;28;20588;-70
2023/09/14 02:01:39;;;;;;;1999.90;999.90;;;15.00;99.90;;;;;;5011282;28;20473;-71
2023/09/14 02:04:05;;;;;;;1999.90;999.90;;;15.00;99.90;;;;;;5012224;28;20203;-70
2023/09/14 02:06:31;;;;;;;1999.90;999.90;;;15.00;99.90;;;;;;5012500;28;20567;-70
2023/09/14 02:08:56;;;;;;;1999.90;999.90;;;15.00;99.90;;;;;;5012491;28;20638;-70
2023/09/14 02:11:22;;;;;;;1999.90;999.90;;;15.00;99.90;;;;;;5012412;28;20203;-70
2023/09/14 02:13:47;;;;;;;1999.90;999.90;;;14.90;99.90;;;;;;5012285;28;20581;-70
2023/09/14 02:16:13;;;;;;;1999.90;999.90;;;14.90;99.90;;;;;;5012327;28;20175;-71
2023/09/14 02:18:39;;;;;;;1999.90;999.90;;;14.80;99.90;;;;;;5011690;28;20403;-70
2023/09/14 02:21:04;;;;;;;1999.90;999.90;;;14.80;99.90;;;;;;5012311;28;20235;-70
2023/09/14 02:23:30;;;;;;;1999.90;999.90;;;14.80;99.90;;;;;;5011971;28;20196;-70
2023/09/14 02:25:55;;;;;;;1999.90;999.90;;;14.80;99.90;;;;;;5012381;28;20228;-69
2023/09/14 02:28:21;;;;;;;1999.90;999.90;;;14.70;99.90;;;;;;5012287;28;20169;-70
2023/09/14 02:30:47;;;;;;;1999.90;999.90;;;14.70;99.90;;;;;;5012200;28;20189;-70
2023/09/14 02:33:13;;;;;;;1999.90;999.90;;;14.60;99.90;;;;;;5012232;28;20175;-70
2023/09/14 02:35:40;;;;;;;1999.90;999.90;;;14.60;99.90;;;;;;5012260;28;20778;-70
2023/09/14 02:38:06;;;;;;;1999.90;999.90;;;14.60;99.90;;;;;;5012127;28;20921;-70
2023/09/14 02:40:33;;;;;;;1999.90;999.90;;;14.60;99.90;;;;;;5012168;28;20519;-70
2023/09/14 02:42:59;;;;;;;1999.90;999.90;;;14.60;99.90;;;;;;5010481;28;20524;-69
2023/09/14 02:45:25;;;;;;;1999.90;999.90;;;14.60;99.90;;;;;;5012030;28;20495;-70
2023/09/14 02:47:51;;;;;;;1999.90;999.90;;;14.50;99.90;;;;;;5010999;28;20260;-70
2023/09/14 02:50:16;;;;;;;1999.90;999.90;;;14.50;99.90;;;;;;5012050;28;20195;-71
2023/09/14 02:52:42;;;;;;;1999.90;999.90;;;14.50;99.90;;;;;;5011711;28;20416;-69
2023/09/14 02:55:08;;;;;;;1999.90;999.90;;;14.50;99.90;;;;;;5012001;28;20176;-70
2023/09/14 02:57:34;;;;;;;1999.90;999.90;;;14.40;99.90;;;;;;5011923;28;20519;-69
2023/09/14 02:59:59;;;;;;;1999.90;999.90;;;14.30;99.90;;;;;;5027234;22;20495;-67
2023/09/14 03:02:26;;;;;;;1999.90;999.90;;;14.30;99.90;;;;;;5017476;28;20294;-69
2023/09/14 03:04:51;;;;;;;1999.90;999.90;;;14.20;99.90;;;;;;5023268;28;20181;-67
2023/09/14 03:07:17;;;;;;;1999.90;999.90;;;14.20;99.90;;;;;;5031608;28;20782;-69
2023/09/14 03:09:42;;;;;;;1999.90;999.90;;;14.10;99.90;;;;;;5031526;28;20279;-67
2023/09/14 03:12:08;;;;;;;1999.90;999.90;;;14.10;99.90;;;;;;5021905;28;20205;-67
2023/09/14 03:14:34;;;;;;;1999.90;999.90;;;14.00;99.90;;;;;;5031254;28;20255;-67
2023/09/14 03:17:00;;;;;;;1999.90;999.90;;;14.00;99.90;;;;;;5031496;28;20414;-68
2023/09/14 03:19:26;;;;;;;1999.90;999.90;;;14.00;99.90;;;;;;5031446;28;20223;-67
2023/09/14 03:21:51;;;;;;;1999.90;999.90;;;14.00;99.90;;;;;;5030781;28;20212;-69
2023/09/14 03:24:17;;;;;;;1999.90;999.90;;;13.90;99.90;;;;;;5022858;28;20205;-67
2023/09/14 03:26:43;;;;;;;1999.90;999.90;;;14.00;99.90;;;;;;5030094;28;20646;-67
2023/09/14 03:29:09;;;;;;;1999.90;999.90;;;14.00;99.90;;;;;;5032320;28;20196;-67
2023/09/14 03:31:35;;;;;;;1999.90;999.90;;;13.90;99.90;;;;;;5035110;28;21010;-67
2023/09/14 03:34:00;;;;;;;1999.90;999.90;;;13.90;99.90;;;;;;5034817;28;20169;-67
2023/09/14 03:36:27;;;;;;;1999.90;999.90;;;13.90;99.90;;;;;;5035005;28;20582;-67
2023/09/14 03:38:53;;;;;;;1999.90;999.90;;;13.80;99.90;;;;;;5032757;28;20172;-67
2023/09/14 03:41:18;;;;;;;1999.90;999.90;;;13.80;99.90;;;;;;5024455;28;20442;-67
2023/09/14 03:43:44;;;;;;;1999.90;999.90;;;13.80;99.90;;;;;;5028702;28;20470;-67
2023/09/14 03:46:13;;;;;;;1999.90;999.90;;;13.80;99.90;;;;;;5028218;28;20634;-67
2023/09/14 03:48:38;;;;;;;1999.90;999.90;;;13.70;99.90;;;;;;5028226;28;20176;-67
2023/09/14 03:51:04;;;;;;;1999.90;999.90;;;13.80;99.90;;;;;;5034583;28;20480;-68
2023/09/14 03:53:30;;;;;;;1999.90;999.90;;;13.80;99.90;;;;;;5023527;28;20185;-69
2023/09/14 03:56:00;;;;;;;1999.90;999.90;;;13.70;99.90;;;;;;5030322;28;20732;-69
2023/09/14 03:58:26;;;;;;;1999.90;999.90;;;13.70;99.90;;;;;;5034789;28;20434;-67
2023/09/14 04:00:52;;;;;;;1999.90;999.90;;;13.70;99.90;;;;;;5034323;28;20450;-67
2023/09/14 04:03:18;;;;;;;1999.90;999.90;;;13.60;99.90;;;;;;5034157;28;20613;-67
2023/09/14 04:05:44;;;;;;;1999.90;999.90;;;13.60;99.90;;;;;;5034390;28;20502;-67
2023/09/14 04:08:10;;;;;;;1999.90;999.90;;;13.70;99.90;;;;;;5034409;28;20177;-67
2023/09/14 04:10:37;;;;;;;1999.90;999.90;;;13.70;99.90;;;;;;5032650;28;20436;-67
2023/09/14 04:13:29;;;;;;;1999.90;999.90;;;13.70;99.90;;;;;;5025686;28;20411;-67
2023/09/14 04:15:56;;;;;;;1999.90;999.90;;;13.80;99.90;;;;;;5034315;28;20413;-67
2023/09/14 04:18:22;;;;;;;1999.90;999.90;;;13.80;99.90;;;;;;5034226;28;20417;-67
2023/09/14 04:20:49;;;;;;;1999.90;999.90;;;13.70;99.90;;;;;;5033964;28;20449;-67
2023/09/14 04:23:15;;;;;;;1999.90;999.90;;;13.70;99.90;;;;;;5033730;28;20472;-67
2023/09/14 04:25:47;;;;;;;1999.90;999.90;;;13.70;99.90;;;;;;5034168;28;20922;-67
2023/09/14 04:28:13;;;;;;;1999.90;999.90;;;13.70;99.90;;;;;;5034196;28;20174;-67
2023/09/14 04:30:45;;;;;;;1999.90;999.90;;;13.70;99.90;;;;;;5033883;28;20446;-67
2023/09/14 04:33:12;;;;;;;1999.90;999.90;;;13.70;99.90;;;;;;5033645;28;20517;-68
2023/09/14 04:35:38;;;;;;;1999.90;999.90;;;13.70;99.90;;;;;;5033848;28;20404;-67
2023/09/14 04:38:06;;;;;;;1999.90;999.90;;;13.60;99.90;;;;;;5033816;28;20909;-67
2023/09/14 04:40:33;;;;;;;1999.90;999.90;;;13.60;99.90;;;;;;5033362;28;20218;-67
2023/09/14 04:43:00;;;;;;;1999.90;999.90;;;13.60;99.90;;;;;;5033262;28;20520;-67
2023/09/14 04:45:25;;;;;;;1999.90;999.90;;;13.60;99.90;;;;;;5033598;28;20409;-67
2023/09/14 04:47:51;;;;;;;1999.90;999.90;;;13.60;99.90;;;;;;5033509;28;20420;-69
2023/09/14 04:50:16;;;;;;;1999.90;999.90;;;13.60;99.90;;;;;;5033524;28;20543;-67
2023/09/14 04:52:42;;;;;;;1999.90;999.90;;;13.50;99.90;;;;;;5033428;28;20175;-67
2023/09/14 04:55:08;;;;;;;1999.90;999.90;;;13.50;99.90;;;;;;5033418;28;20638;-67
2023/09/14 04:57:33;;;;;;;1999.90;999.90;;;13.40;99.90;;;;;;5033420;28;20176;-67
2023/09/14 04:59:59;;;;;;;1999.90;999.90;;;13.50;99.90;;;;;;5031864;28;20490;-70
2023/09/14 05:02:24;;;;;;;1999.90;999.90;;;13.40;99.90;;;;;;5024199;28;20191;-67
2023/09/14 05:04:50;;;;;;;1999.90;999.90;;;13.50;99.90;;;;;;5033146;28;20172;-67
2023/09/14 05:07:15;;;;;;;1999.90;999.90;;;13.50;99.90;;;;;;5033328;28;20681;-67
2023/09/14 05:09:41;;;;;;;1999.90;999.90;;;13.50;99.90;;;;;;5033188;28;20172;-69
2023/09/14 05:12:07;;;;;;;1999.90;999.90;;;13.50;99.90;;;;;;5033139;28;20236;-67
2023/09/14 05:14:32;;;;;;;1999.90;999.90;;;13.40;99.90;;;;;;5032909;28;20229;-67
2023/09/14 05:16:58;;;;;;;1999.90;999.90;;;13.40;99.90;;;;;;5031749;28;20185;-67
2023/09/14 05:19:23;;;;;;;1999.90;999.90;;;13.40;99.90;;;;;;5033019;28;20176;-69
2023/09/14 05:21:49;;;;;;;1999.90;999.90;;;13.40;99.90;;;;;;5032881;28;20194;-67
2023/09/14 05:24:14;;;;;;;1999.90;999.90;;;13.60;99.90;;;;;;5032630;28;20770;-67
2023/09/14 05:26:40;;;;;;;1999.90;999.90;;;13.40;99.90;;;;;;5032927;28;20510;-67
2023/09/14 05:29:05;;;;;;;1999.90;999.90;;;13.30;99.90;;;;;;5032957;28;20170;-69
2023/09/14 05:31:31;;;;;;;1999.90;999.90;;;13.30;99.90;;;;;;5032800;28;20685;-68
2023/09/14 05:33:56;;;;;;;1999.90;999.90;;;13.30;99.90;;;;;;5032382;28;20179;-67
2023/09/14 05:36:22;;;;;;;1999.90;999.90;;;13.30;99.90;;;;;;5032778;28;20185;-67
2023/09/14 05:38:48;;;;;;;1999.90;999.90;;;13.30;99.90;;;;;;5032660;28;20170;-68
2023/09/14 05:41:14;;;;;;;1999.90;999.90;;;13.30;99.90;;;;;;5032672;28;20282;-69
2023/09/14 05:43:39;;;;;;;1999.90;999.90;;;13.30;99.90;;;;;;5032214;28;21044;-67
2023/09/14 05:46:06;;;;;;;1999.90;999.90;;;13.40;99.90;;;;;;5032575;28;20570;-68
2023/09/14 05:48:33;;;;;;;1999.90;999.90;;;13.30;99.90;;;;;;5032468;28;20172;-67
2023/09/14 05:50:59;;;;;;;1999.90;999.90;;;13.40;99.90;;;;;;5032426;28;20423;-67
2023/09/14 05:53:24;;;;;;;1999.90;999.90;;;13.40;99.90;;;;;;5031291;28;20412;-67
2023/09/14 05:55:50;;;;;;;1999.90;999.90;;;13.30;99.90;;;;;;5032386;28;20174;-68
2023/09/14 05:58:16;;;;;;;1999.90;999.90;;;13.30;99.90;;;;;;5032378;28;20188;-70
2023/09/14 06:00:41;;;;;;;1999.90;999.90;;;13.30;99.90;;;;;;5032073;28;21001;-68
2023/09/14 06:03:07;;;;;;;1999.90;999.90;;;13.40;99.90;;;;;;5031830;28;20192;-67
2023/09/14 06:05:33;;;;;;;1999.90;999.90;;;13.40;99.90;;;;;;5026092;28;20515;-67
2023/09/14 06:07:58;;;;;;;1999.90;999.90;;;13.40;99.90;;;;;;5022295;28;20403;-67
2023/09/14 06:10:24;;;;;;;1999.90;999.90;;;13.40;99.90;;;;;;5022691;28;20269;-69
2023/09/14 06:12:51;;;;;;;1999.90;999.90;;;13.40;99.90;;;;;;5023734;28;20608;-68
2023/09/14 06:15:16;;;;;;;1999.90;999.90;;;13.50;99.90;;;;;;5029710;28;20468;-68
2023/09/14 06:17:42;;;;;;;1999.90;999.90;;;13.60;99.90;;;;;;5023882;28;20512;-68
2023/09/14 06:20:08;;;;;;;1999.90;999.90;;;13.80;99.90;;;;;;5032117;28;20181;-68
2023/09/14 06:22:34;;;;;;;1999.90;999.90;;;13.60;99.90;;;;;;5031981;28;20179;-68
2023/09/14 06:24:59;;;;;;;1999.90;999.90;;;13.70;99.90;;;;;;5030738;28;20464;-69
2023/09/14 06:27:25;;;;;;;1999.90;999.90;;;13.70;99.90;;;;;;5022706;28;20177;-68
2023/09/14 06:29:50;;;;;;;1999.90;999.90;;;13.80;99.90;;;;;;5031987;28;20202;-68
2023/09/14 06:32:16;;;;;;;1999.90;999.90;;;13.70;99.90;;;;;;5031862;28;20206;-68
2023/09/14 06:34:41;;;;;;;1999.90;999.90;;;13.80;99.90;;;;;;5031668;28;20636;-68
2023/09/14 06:37:07;;;;;;;1999.90;999.90;;;13.90;99.90;;;;;;5032241;28;20570;-68
2023/09/14 06:39:32;;;;;;;1999.90;999.90;;;14.00;99.90;;;;;;5031933;28;20212;-68
2023/09/14 06:41:58;;;;;;;1999.90;999.90;;;14.00;99.90;;;;;;5031920;28;20199;-68
2023/09/14 06:44:25;;;;;;;1999.90;999.90;;;14.10;99.90;;;;;;5031491;28;20306;-68
2023/09/14 06:46:51;;;;;;;1999.90;999.90;;;14.20;99.90;;;;;;5031685;28;20643;-69
2023/09/14 06:49:16;;;;;;;1999.90;999.90;;;14.20;99.90;;;;;;5031764;28;20410;-68
2023/09/14 06:51:42;;;;;;;1999.90;999.90;;;14.30;99.90;;;;;;5031710;28;20219;-69
2023/09/14 06:54:07;;;;;;;1999.90;999.90;;;14.30;99.90;;;;;;5031639;28;20179;-68
2023/09/14 06:56:33;;;;;;;1999.90;999.90;;;14.30;99.90;;;;;;5031872;28;20253;-69
2023/09/14 06:58:58;;;;;;;1999.90;999.90;;;14.40;99.90;;;;;;5023956;28;20680;-68
2023/09/14 07:01:24;;;;;;;1999.90;999.90;;;14.50;99.90;;;;;;5011589;28;20253;-69
2023/09/14 07:03:53;;;;;;;1999.90;999.90;;;14.50;99.90;;;;;;5019842;28;20558;-68
2023/09/14 07:06:18;;;;;;;1999.90;999.90;;;14.50;99.90;;;;;;5033459;28;20169;-69
2023/09/14 07:08:44;;;;;;;1999.90;999.90;;;14.60;99.90;;;;;;5035626;28;20810;-68
2023/09/14 07:11:10;;;;;;;1999.90;999.90;;;14.60;99.90;;;;;;5033123;28;20200;-68
2023/09/14 07:13:35;;;;;;;1999.90;999.90;;;14.70;99.90;;;;;;5016231;28;20191;-69
2023/09/14 07:16:03;;;;;;;1999.90;999.90;;;14.70;99.90;;;;;;5027099;28;21371;-68
2023/09/14 07:18:30;;;;;;;1999.90;999.90;;;14.80;99.90;;;;;;5024769;28;20192;-68
2023/09/14 07:20:58;;;;;;;1999.90;999.90;;;14.80;99.90;;;;;;5026656;28;20445;-67
2023/09/14 07:23:25;;;;;;;1999.90;999.90;;;14.90;99.90;;;;;;5024687;28;20486;-69
2023/09/14 07:25:50;;;;;;;1999.90;999.90;;;15.00;99.90;;;;;;5028915;28;20446;-67
2023/09/14 07:28:20;;;;;;;1999.90;999.90;;;15.10;99.90;;;;;;5035116;28;21043;-68
2023/09/14 07:30:48;;;;;;;1999.90;999.90;;;15.10;99.90;;;;;;5035015;28;20256;-67
2023/09/14 07:33:14;;;;;;;1999.90;999.90;;;15.20;99.90;;;;;;5034751;28;20412;-67
2023/09/14 07:35:39;;;;;;;1999.90;999.90;;;15.20;99.90;;;;;;5033637;28;20492;-67
2023/09/14 07:38:08;;;;;;;1999.90;999.90;;;15.30;99.90;;;;;;5026723;28;20508;-67
2023/09/14 07:40:34;;;;;;;1999.90;999.90;;;15.40;99.90;;;;;;5015545;28;20298;-67
2023/09/14 07:42:59;;;;;;;1999.90;999.90;;;15.50;99.90;;;;;;5025058;28;20588;-68
2023/09/14 07:45:25;;;;;;;1999.90;999.90;;;15.60;99.90;;;;;;5025005;28;20170;-67
2023/09/14 07:47:51;;;;;;;1999.90;999.90;;;15.60;99.90;;;;;;5033280;28;20228;-67
2023/09/14 07:50:16;;;;;;;1999.90;999.90;;;15.70;99.90;;;;;;5026420;28;20263;-68
2023/09/14 07:52:42;;;;;;;1999.90;999.90;;;15.70;99.90;;;;;;5015507;28;20172;-71
2023/09/14 07:55:08;;;;;;;1999.90;999.90;;;15.80;99.90;;;;;;5030425;28;20411;-67
2023/09/14 07:57:33;;;;;;;1999.90;999.90;;;15.90;99.90;;;;;;5034599;28;20176;-67
2023/09/14 07:59:59;;;;;;;1999.90;999.90;;;15.90;99.90;;;;;;5034310;28;20627;-67
2023/09/14 08:02:27;;;;;;;1999.90;999.90;;;16.10;99.90;;;;;;5034494;28;20184;-68
2023/09/14 08:04:53;;;;;;;1999.90;999.90;;;16.10;99.90;;;;;;5034348;28;20317;-68
2023/09/14 08:07:18;;;;;;;1999.90;999.90;;;16.20;99.90;;;;;;5034494;28;20438;-70
2023/09/14 08:09:45;;;;;;;1999.90;999.90;;;16.30;99.90;;;;;;5023343;28;20903;-67
2023/09/14 08:12:10;;;;;;;1999.90;999.90;;;16.40;99.90;;;;;;5030322;28;20242;-70
2023/09/14 08:14:36;;;;;;;1999.90;999.90;;;16.40;99.90;;;;;;5033941;28;20822;-67
2023/09/14 08:17:01;;;;;;;1999.90;999.90;;;16.40;99.90;;;;;;5033191;28;20175;-67
2023/09/14 08:19:27;;;;;;;1999.90;999.90;;;16.60;99.90;;;;;;5019541;28;20520;-68
2023/09/14 08:21:53;;;;;;;1999.90;999.90;;;16.60;99.90;;;;;;4997162;28;20208;-70
2023/09/14 08:24:18;;;;;;;1999.90;999.90;;;16.70;99.90;;;;;;4994481;28;20215;-67
2023/09/14 08:26:44;;;;;;;1999.90;999.90;;;16.80;99.90;;;;;;4994888;28;20178;-67
2023/09/14 08:29:10;;;;;;;1999.90;999.90;;;16.80;99.90;;;;;;5004921;28;20184;-68
2023/09/14 08:31:36;;;;;;;1999.90;999.90;;;16.90;99.90;;;;;;5021165;28;20185;-68
2023/09/14 08:34:02;;;;;;;1999.90;999.90;;;17.00;99.90;;;;;;5016993;28;20795;-72
2023/09/14 08:36:28;;;;;;;1999.90;999.90;;;17.00;99.90;;;;;;5020762;28;20416;-67
2023/09/14 08:38:54;;;;;;;1999.90;999.90;;;17.10;99.90;;;;;;5026437;28;20423;-68
2023/09/14 08:41:34;;;;;;;1999.90;999.90;;;17.10;99.90;;;;;;5028788;28;20290;-68
2023/09/14 08:44:01;;;;;;;1999.90;999.90;;;17.20;99.90;;;;;;5022629;28;20243;-68
2023/09/14 08:46:27;;;;;;;1999.90;999.90;;;17.30;99.90;;;;;;5012831;28;20502;-68
2023/09/14 08:48:55;;;;;;;1999.90;999.90;;;17.40;99.90;;;;;;5025201;28;20407;-67
2023/09/14 08:51:23;;;;;;;1999.90;999.90;;;17.40;99.90;;;;;;5020708;28;20459;-70
2023/09/14 08:53:49;;;;;;;1999.90;999.90;;;17.50;99.90;;;;;;5007523;28;20428;-70
2023/09/14 08:56:15;;;;;;;1999.90;999.90;;;17.60;99.90;;;;;;5016961;28;20436;-68
2023/09/14 08:58:42;;;;;;;1999.90;999.90;;;17.70;99.90;;;;;;5015944;28;20417;-70
2023/09/14 09:01:09;;;;;;;1999.90;999.90;;;17.90;99.90;;;;;;5016456;28;20538;-68
2023/09/14 09:03:35;;;;;;;1999.90;999.90;;;18.00;99.90;;;;;;5009001;28;20976;-68
2023/09/14 09:06:01;;;;;;;1999.90;999.90;;;18.10;99.90;;;;;;5023420;28;20418;-68
2023/09/14 09:08:28;;;;;;;1999.90;999.90;;;18.20;99.90;;;;;;5021481;28;20173;-69
2023/09/14 09:10:53;;;;;;;1999.90;999.90;;;18.40;99.90;;;;;;5020450;28;20419;-68
2023/09/14 09:13:19;;;;;;;1999.90;999.90;;;18.50;99.90;;;;;;5028847;28;20410;-67
2023/09/14 09:15:45;;;;;;;1999.90;999.90;;;18.60;99.90;;;;;;5027120;28;20184;-69
2023/09/14 09:18:11;;;;;;;1999.90;999.90;;;18.60;99.90;;;;;;5017356;28;20181;-70
2023/09/14 09:20:45;;;;;;;1999.90;999.90;;;18.60;99.90;;;;;;5013738;28;20674;-69
2023/09/14 09:23:15;;;;;;;1999.90;999.90;;;18.80;99.90;;;;;;5021062;28;20451;-69
2023/09/14 09:25:48;;;;;;;1999.90;999.90;;;18.90;99.90;;;;;;5029445;28;20421;-69
2023/09/14 09:28:14;;;;;;;1999.90;999.90;;;19.20;99.90;;;;;;5028397;28;20439;-69
2023/09/14 09:30:40;;;;;;;1999.90;999.90;;;19.40;99.90;;;;;;5028993;28;20462;-69
2023/09/14 09:33:06;;;;;;;1999.90;999.90;;;19.50;99.90;;;;;;5028901;28;20458;-68
2023/09/14 09:35:34;;;;;;;1999.90;999.90;;;19.60;99.90;;;;;;5027822;28;20219;-69
2023/09/14 09:38:08;;;;;;;1999.90;999.90;;;19.70;99.90;;;;;;5022483;28;20477;-69
2023/09/14 09:40:34;;;;;;;1999.90;999.90;;;19.90;99.90;;;;;;5009299;28;20524;-70
2023/09/14 09:43:07;;;;;;;1999.90;999.90;;;20.00;99.90;;;;;;5009027;28;21151;-70
2023/09/14 09:45:33;;;;;;;1999.90;999.90;;;20.20;99.90;;;;;;5005762;28;20177;-69
2023/09/14 09:48:01;;;;;;;1999.90;999.90;;;20.30;99.90;;;;;;5017460;28;20393;-70
2023/09/14 09:50:27;;;;;;;1999.90;999.90;;;20.40;99.90;;;;;;5019274;28;20434;-69
2023/09/14 09:52:53;;;;;;;1999.90;999.90;;;20.30;99.90;;;;;;5015306;28;20966;-70
2023/09/14 09:55:25;;;;;;;1999.90;999.90;;;20.30;99.90;;;;;;5016292;28;20796;-70
2023/09/14 09:57:58;;;;;;;1999.90;999.90;;;20.20;99.90;;;;;;5021060;28;20856;-70
2023/09/14 10:00:29;;;;;;;1999.90;999.90;;;20.30;99.90;;;;;;5014657;28;20455;-70
2023/09/14 10:02:55;;;;;;;1999.90;999.90;;;20.50;99.90;;;;;;5028923;28;20426;-70
2023/09/14 10:05:32;;;;;;;1999.90;999.90;;;20.70;99.90;;;;;;5028106;28;20397;-69
2023/09/14 10:07:58;;;;;;;1999.90;999.90;;;20.70;99.90;;;;;;5028370;28;20178;-69
2023/09/14 10:10:32;;;;;;;1999.90;999.90;;;21.00;99.90;;;;;;5024967;28;20458;-69
2023/09/14 10:13:00;;;;;;;1999.90;999.90;;;21.10;99.90;;;;;;5021457;28;20396;-70
2023/09/14 10:15:27;;;;;;;1999.90;999.90;;;21.30;99.90;;;;;;5029181;28;20410;-69
2023/09/14 10:17:55;;;;;;;1999.90;999.90;;;21.50;99.90;;;;;;5025128;28;20427;-69
2023/09/14 10:20:21;;;;;;;1999.90;999.90;;;21.70;99.90;;;;;;5016586;28;20413;-69
2023/09/14 10:22:48;;;;;;;1999.90;999.90;;;22.10;99.90;;;;;;5028271;28;20465;-69
2023/09/14 10:25:16;;;;;;;1999.90;999.90;;;22.20;99.90;;;;;;5026092;28;20420;-70
2023/09/14 10:27:42;;;;;;;1999.90;999.90;;;22.20;99.90;;;;;;5019523;28;20393;-70
2023/09/14 10:30:13;;;;;;;1999.90;999.90;;;22.40;99.90;;;;;;5028577;28;20418;-70
2023/09/14 10:32:39;;;;;;;1999.90;999.90;;;22.50;99.90;;;;;;5029335;28;20501;-70
2023/09/14 10:35:05;;;;;;;1999.90;999.90;;;22.50;99.90;;;;;;5028413;28;20418;-69
2023/09/14 10:37:34;;;;;;;1999.90;999.90;;;22.60;99.90;;;;;;5026887;28;20417;-69
2023/09/14 10:40:02;;;;;;;1999.90;999.90;;;22.80;99.90;;;;;;5028122;28;20429;-70
2023/09/14 10:42:27;;;;;;;1999.90;999.90;;;22.90;99.90;;;;;;5028973;28;20414;-70
2023/09/14 10:44:53;;;;;;;1999.90;999.90;;;23.00;99.90;;;;;;5027666;28;20483;-70
2023/09/14 10:47:23;;;;;;;1999.90;999.90;;;23.00;99.90;;;;;;5028264;28;20234;-70
2023/09/14 10:49:50;;;;;;;1999.90;999.90;;;23.10;99.90;;;;;;5029112;28;20673;-69
2023/09/14 10:52:27;;;;;;;1999.90;999.90;;;23.30;99.90;;;;;;5028130;28;20477;-70
2023/09/14 10:54:53;;;;;;;1999.90;999.90;;;23.40;99.90;;;;;;5027751;28;20385;-69
2023/09/14 10:57:24;;;;;;;1999.90;999.90;;;23.60;99.90;;;;;;5027825;28;20473;-68
2023/09/14 10:59:52;;;;;;;1999.90;999.90;;;23.80;99.90;;;;;;5027619;28;20623;-72
2023/09/14 11:02:36;;;;;;;1999.90;999.90;;;23.90;99.90;;;;;;5028035;28;20446;-68
2023/09/14 11:05:18;;;;;;;1999.90;999.90;;;23.90;99.90;;;;;;5027392;28;20397;-71
2023/09/14 11:07:47;;;;;;;1999.90;999.90;;;23.90;99.90;;;;;;5027336;28;20421;-70
2023/09/14 11:10:17;;;;;;;1999.90;999.90;;;24.10;99.90;;;;;;5027825;28;20909;-71
2023/09/14 11:12:43;;;;;;;1999.90;999.90;;;24.30;99.90;;;;;;5028076;28;20422;-69
2023/09/14 11:15:13;;;;;;;1999.90;999.90;;;24.30;99.90;;;;;;5027189;28;20441;-69
2023/09/14 11:17:46;;;;;;;1999.90;999.90;;;24.30;99.10;;;;;;5027091;28;20420;-69
2023/09/14 11:20:24;;;;;;;1999.90;999.90;;;24.30;98.00;;;;;;5027124;28;20409;-71
2023/09/14 11:22:51;;;;;;;1999.90;999.90;;;24.40;99.90;;;;;;5026872;28;20415;-68
2023/09/14 11:25:27;;;;;;;1999.90;999.90;;;24.60;98.40;;;;;;5027928;28;20790;-69
2023/09/14 11:27:53;;;;;;;1999.90;999.90;;;24.70;92.00;;;;;;5027797;28;20393;-69
2023/09/14 11:30:24;;;;;;;1999.90;999.90;;;24.80;92.90;;;;;;5027104;28;21000;-68
2023/09/14 11:32:50;;;;;;;1999.90;999.90;;;24.90;91.80;;;;;;5026784;28;20573;-69
2023/09/14 11:35:17;;;;;;;1999.90;999.90;;;25.10;91.30;;;;;;5027532;28;20443;-71
2023/09/14 11:37:43;;;;;;;1999.90;999.90;;;25.10;86.80;;;;;;5027999;28;21065;-68
2023/09/14 11:40:15;;;;;;;1999.90;999.90;;;25.10;92.30;;;;;;5026923;28;20901;-70
2023/09/14 11:43:06;;;;;;;1999.90;999.90;;;25.40;90.60;;;;;;5026808;28;20468;-68
2023/09/14 11:45:35;;;;;;;1999.90;999.90;;;26.10;85.50;;;;;;5027683;28;20381;-68
2023/09/14 11:48:03;;;;;;;1999.90;999.90;;;26.70;79.30;;;;;;5026978;28;20457;-70
2023/09/14 11:50:29;;;;;;;1999.90;999.90;;;27.40;73.40;;;;;;5026745;28;20714;-69
2023/09/14 11:52:56;;;;;;;1999.90;999.90;;;27.90;58.40;;;;;;5011720;28;20425;-68
2023/09/14 11:55:22;;;;;;;1999.90;999.90;;;28.40;47.50;;;;;;5014206;28;20408;-68
2023/09/14 11:57:48;;;;;;;1999.90;999.90;;;28.70;42.00;;;;;;5014388;28;20432;-68